DW4892 Weather Reports


Display with metric or nautical units.
time (UTC)temp
F
wind
direction
speed
MPH
gust
MPH
rain 1hr
in
rain 24hr
in
rain mn
in
humidity
%
barometer
mb
20190122081602 18 9 8.0 16.0 0.00 0.00 0.00 90 1009.6
20190122080121 18 13 12.0 16.0 0.00 0.00 0.00 90 1009.4
20190122074556 18 9 10.0 16.0 0.00 0.00 0.00 90 1009.2
20190122073111 19 13 13.0 20.0 0.00 0.00 0.00 90 1008.9
20190122071607 19 27 13.0 20.0 0.00 0.00 0.00 90 1008.6
20190122070102 19 32 14.0 20.0 0.00 0.00 0.00 90 1008.1
20190122064610 20 24 16.0 24.0 0.00 0.00 0.00 90 1007.8
20190122063044 21 23 17.0 24.0 0.00 0.00 0.00 90 1007.5
20190122061611 22 9 19.0 29.0 0.00 0.00 0.00 90 1006.9
20190122060107 22 17 22.0 29.0 0.00 0.00 0.00 90 1006.6
20190122054546 23 28 22.0 28.0 0.00 0.00 0.00 90 1006.1
20190122053034 25 14 23.0 38.0 0.00 0.00 0.00 89 1005.5
20190122051552 30 32 22.0 28.0 0.00 0.00 0.00 90 1004.6
20190122050029 31 41 4.0 10.0 0.00 0.00 0.00 88 1004.2
20190122044616 33 30 11.0 18.0 0.00 0.00 0.00 82 1004.1
20190122043101 35 50 10.0 13.0 0.00 0.00 0.00 73 1003.5
20190122041610 36 219 0.0 2.0 0.00 0.00 0.00 65 1003.1
20190122040104 36 219 2.0 4.0 0.00 0.00 0.00 65 1003.0
20190122034558 36 235 6.0 16.0 0.00 0.00 0.00 66 1003.2
20190122033057 36 230 1.0 6.0 0.00 0.00 0.00 68 1003.1
20190122031558 37 248 3.0 7.0 0.00 0.00 0.00 66 1003.0
20190122030115 37 234 3.0 9.0 0.00 0.00 0.00 66 1002.8
20190122024546 37 244 2.0 10.0 0.00 0.00 0.00 66 1002.4
20190122023101 36 194 5.0 10.0 0.00 0.00 0.00 66 1002.1
20190122021603 36 185 5.0 9.0 0.00 0.00 0.00 68 1002.2
20190122020041 36 234 5.0 9.0 0.00 0.00 0.00 67 1002.3
20190122014625 37 232 6.0 14.0 0.00 0.00 0.00 66 1002.4
20190122013036 36 220 4.0 8.0 0.00 0.00 0.00 62 1002.2
20190122011600 36 236 1.0 3.0 0.00 0.00 0.00 67 1002.0
20190122010111 36 236 0.0 0.0 0.00 0.00 0.00 64 1002.1
20190122004601 37 236 0.0 0.0 0.00 0.00 0.00 62 1002.1
20190122003049 38 236 0.0 5.0 0.00 0.00 0.00 61 1001.8
20190122001623 39 236 2.0 6.0 0.00 0.00 0.00 57 1001.5
20190122000133 39 209 5.0 9.0 0.00 0.00 0.00 55 1001.3
20190121234612 41 276 3.0 9.0 0.00 0.00 0.00 50 1001.3
20190121233057 42 208 5.0 11.0 0.00 0.00 0.00 48 1001.1
20190121231624 43 199 6.0 12.0 0.00 0.00 0.00 46 1000.7
20190121230108 45 203 9.0 17.0 0.00 0.00 0.00 42 1000.5
20190121224544 45 205 12.0 20.0 0.00 0.00 0.00 41 1000.2
20190121223050 46 207 11.0 20.0 0.00 0.00 0.00 39 1000.0
20190121221539 46 169 8.0 19.0 0.00 0.00 0.00 37 999.9
20190121220058 48 213 10.0 19.0 0.00 0.00 0.00 32 1000.0
20190121214534 50 195 9.0 18.0 0.00 0.00 0.00 30 999.8
20190121213111 51 216 7.0 14.0 0.00 0.00 0.00 29 999.5
20190121211606 51 208 4.0 14.0 0.00 0.00 0.00 29 999.9
20190121210120 51 207 8.0 12.0 0.00 0.00 0.00 28 999.7
20190121204604 51 229 7.0 18.0 0.00 0.00 0.00 28 999.8
20190121203044 52 224 9.0 17.0 0.00 0.00 0.00 28 999.9
20190121201541 51 216 7.0 13.0 0.00 0.00 0.00 28 1000.1
20190121200112 51 244 10.0 16.0 0.00 0.00 0.00 27 1000.2
20190121194636 51 252 9.0 19.0 0.00 0.00 0.00 27 1000.3
20190121193101 51 225 9.0 16.0 0.00 0.00 0.00 27 1000.4
20190121191552 52 216 9.0 16.0 0.00 0.00 0.00 27 1000.8
20190121190039 51 248 4.0 12.0 0.00 0.00 0.00 29 1001.0
20190121184611 50 229 7.0 15.0 0.00 0.00 0.00 30 1001.4
20190121183121 50 227 8.0 16.0 0.00 0.00 0.00 29 1001.7
20190121181625 50 206 8.0 19.0 0.00 0.00 0.00 29 1002.1
20190121180110 49 195 8.0 15.0 0.00 0.00 0.00 30 1002.3
20190121174550 49 183 9.0 16.0 0.00 0.00 0.00 30 1002.4
20190121173053 48 190 5.0 19.0 0.00 0.00 0.00 30 1002.6
20190121171529 47 251 11.0 21.0 0.00 0.00 0.00 30 1002.8
20190121170104 47 237 10.0 23.0 0.00 0.00 0.00 30 1002.9
20190121164612 47 250 7.0 15.0 0.00 0.00 0.00 30 1003.1
20190121163126 46 247 6.0 12.0 0.00 0.00 0.00 31 1003.3
20190121161652 46 218 4.0 16.0 0.00 0.00 0.00 30 1003.6
20190121160040 45 237 10.0 22.0 0.00 0.00 0.00 28 1003.7
20190121154600 44 205 13.0 31.0 0.00 0.00 0.00 29 1003.2
20190121153054 43 224 10.0 20.0 0.00 0.00 0.00 30 1003.2
20190121151554 43 281 10.0 20.0 0.00 0.00 0.00 28 1003.5
20190121150114 43 232 6.0 21.0 0.00 0.00 0.00 27 1003.8
20190121144609 44 213 12.0 21.0 0.00 0.00 0.00 25 1004.0
20190121143238 43 236 9.0 21.0 0.00 0.00 0.00 25 1004.0
20190121141539 43 238 7.0 18.0 0.00 0.00 0.00 27 1004.3
20190121140143 44 225 11.0 22.0 0.00 0.00 0.00 24 1004.2
20190121134552 43 232 11.0 25.0 0.00 0.00 0.00 25 1004.3
20190121133035 43 183 8.0 19.0 0.00 0.00 0.00 25 1004.3
20190121131623 42 188 8.0 17.0 0.00 0.00 0.00 26 1004.5
20190121130109 40 205 4.0 12.0 0.00 0.00 0.00 29 1004.8
20190121124553 38 182 2.0 7.0 0.00 0.00 0.00 32 1004.9
20190121123054 37 185 4.0 8.0 0.00 0.00 0.00 33 1004.8
20190121121657 37 263 3.0 7.0 0.00 0.00 0.00 32 1005.1
20190121120055 37 190 3.0 6.0 0.00 0.00 0.00 34 1005.7
20190121114552 37 221 1.0 4.0 0.00 0.00 0.00 34 1006.0
20190121113124 37 221 2.0 5.0 0.00 0.00 0.00 33 1006.3
20190121111553 39 234 0.0 3.0 0.00 0.00 0.00 33 1006.5
20190121110121 40 235 0.0 7.0 0.00 0.00 0.00 30 1006.5
20190121104547 42 261 5.0 9.0 0.00 0.00 0.00 31 1006.5
20190121103137 43 258 5.0 10.0 0.00 0.00 0.00 28 1006.7
20190121101548 43 163 4.0 8.0 0.00 0.00 0.00 26 1006.7
20190121100050 42 231 2.0 10.0 0.00 0.00 0.00 28 1006.8
20190121094600 42 228 1.0 9.0 0.00 0.00 0.00 27 1007.1
20190121093103 42 215 4.0 9.0 0.00 0.00 0.00 29 1007.2
20190121091537 41 194 3.0 6.0 0.00 0.00 0.00 30 1007.3
20190121090205 41 207 6.0 9.0 0.00 0.00 0.00 30 1007.7
20190121084553 41 227 4.0 10.0 0.00 0.00 0.00 30 1008.2
20190121083057 41 194 6.0 10.0 0.00 0.00 0.00 30 1007.9